sensor_id;sensor_type;location;lat;lon;timestamp;P1;durP1;ratioP1;P2;durP2;ratioP2
49029;SDS011;43337;52.070;4.508;2022-08-19T00:02:23;11.85;;;5.65;;
49029;SDS011;43337;52.070;4.508;2022-08-19T00:04:49;11.32;;;6.55;;
49029;SDS011;43337;52.070;4.508;2022-08-19T00:07:17;9.13;;;5.03;;
49029;SDS011;43337;52.070;4.508;2022-08-19T00:09:43;7.80;;;4.85;;
49029;SDS011;43337;52.070;4.508;2022-08-19T00:12:09;9.10;;;5.68;;
49029;SDS011;43337;52.070;4.508;2022-08-19T00:14:35;9.80;;;6.13;;
49029;SDS011;43337;52.070;4.508;2022-08-19T00:17:01;9.93;;;5.90;;
49029;SDS011;43337;52.070;4.508;2022-08-19T00:19:28;10.13;;;5.75;;
49029;SDS011;43337;52.070;4.508;2022-08-19T00:21:54;9.98;;;5.22;;
49029;SDS011;43337;52.070;4.508;2022-08-19T00:24:21;8.38;;;5.38;;
49029;SDS011;43337;52.070;4.508;2022-08-19T00:26:47;12.10;;;6.78;;
49029;SDS011;43337;52.070;4.508;2022-08-19T00:29:14;14.35;;;6.45;;
49029;SDS011;43337;52.070;4.508;2022-08-19T00:31:41;9.05;;;5.22;;
49029;SDS011;43337;52.070;4.508;2022-08-19T00:34:08;13.07;;;6.00;;
49029;SDS011;43337;52.070;4.508;2022-08-19T00:36:33;9.07;;;5.35;;
49029;SDS011;43337;52.070;4.508;2022-08-19T00:38:59;10.30;;;6.47;;
49029;SDS011;43337;52.070;4.508;2022-08-19T00:41:24;12.13;;;5.85;;
49029;SDS011;43337;52.070;4.508;2022-08-19T00:46:32;11.35;;;5.60;;
49029;SDS011;43337;52.070;4.508;2022-08-19T00:49:02;8.73;;;5.60;;
49029;SDS011;43337;52.070;4.508;2022-08-19T00:51:31;9.38;;;5.78;;
49029;SDS011;43337;52.070;4.508;2022-08-19T00:53:57;11.30;;;5.95;;
49029;SDS011;43337;52.070;4.508;2022-08-19T00:56:25;12.00;;;6.30;;
49029;SDS011;43337;52.070;4.508;2022-08-19T00:58:51;11.02;;;6.70;;
49029;SDS011;43337;52.070;4.508;2022-08-19T01:01:18;13.82;;;6.93;;
49029;SDS011;43337;52.070;4.508;2022-08-19T01:03:44;12.27;;;7.18;;
49029;SDS011;43337;52.070;4.508;2022-08-19T01:06:09;14.63;;;8.10;;
49029;SDS011;43337;52.070;4.508;2022-08-19T01:08:35;13.77;;;7.47;;
49029;SDS011;43337;52.070;4.508;2022-08-19T01:11:00;15.02;;;8.23;;
49029;SDS011;43337;52.070;4.508;2022-08-19T01:13:27;12.98;;;8.32;;
49029;SDS011;43337;52.070;4.508;2022-08-19T01:15:56;15.35;;;8.55;;
49029;SDS011;43337;52.070;4.508;2022-08-19T01:18:26;16.73;;;9.90;;
49029;SDS011;43337;52.070;4.508;2022-08-19T01:20:54;16.77;;;9.15;;
49029;SDS011;43337;52.070;4.508;2022-08-19T01:23:24;15.00;;;9.77;;
49029;SDS011;43337;52.070;4.508;2022-08-19T01:26:07;18.02;;;9.98;;
49029;SDS011;43337;52.070;4.508;2022-08-19T01:28:36;18.10;;;9.57;;
49029;SDS011;43337;52.070;4.508;2022-08-19T01:31:03;17.33;;;9.48;;
49029;SDS011;43337;52.070;4.508;2022-08-19T01:33:28;13.35;;;8.93;;
49029;SDS011;43337;52.070;4.508;2022-08-19T01:36:03;17.42;;;9.50;;
49029;SDS011;43337;52.070;4.508;2022-08-19T01:38:29;15.20;;;9.07;;
49029;SDS011;43337;52.070;4.508;2022-08-19T01:40:56;19.42;;;10.18;;
49029;SDS011;43337;52.070;4.508;2022-08-19T01:43:22;21.35;;;9.98;;
49029;SDS011;43337;52.070;4.508;2022-08-19T01:45:47;19.08;;;9.75;;
49029;SDS011;43337;52.070;4.508;2022-08-19T01:48:13;18.98;;;10.73;;
49029;SDS011;43337;52.070;4.508;2022-08-19T01:50:39;16.55;;;10.65;;
49029;SDS011;43337;52.070;4.508;2022-08-19T01:53:06;17.13;;;10.27;;
49029;SDS011;43337;52.070;4.508;2022-08-19T01:55:36;14.98;;;10.15;;
49029;SDS011;43337;52.070;4.508;2022-08-19T01:58:03;18.13;;;10.70;;
49029;SDS011;43337;52.070;4.508;2022-08-19T02:00:30;15.90;;;10.63;;
49029;SDS011;43337;52.070;4.508;2022-08-19T02:02:57;16.85;;;10.45;;
49029;SDS011;43337;52.070;4.508;2022-08-19T02:05:23;20.88;;;11.63;;
49029;SDS011;43337;52.070;4.508;2022-08-19T02:07:48;21.25;;;12.82;;
49029;SDS011;43337;52.070;4.508;2022-08-19T02:10:16;26.27;;;15.65;;
49029;SDS011;43337;52.070;4.508;2022-08-19T02:12:44;26.25;;;15.07;;
49029;SDS011;43337;52.070;4.508;2022-08-19T02:15:09;25.10;;;15.18;;
49029;SDS011;43337;52.070;4.508;2022-08-19T02:17:35;32.75;;;18.25;;
49029;SDS011;43337;52.070;4.508;2022-08-19T02:20:01;31.52;;;18.73;;
49029;SDS011;43337;52.070;4.508;2022-08-19T02:22:27;33.05;;;19.50;;
49029;SDS011;43337;52.070;4.508;2022-08-19T02:24:52;36.55;;;20.27;;
49029;SDS011;43337;52.070;4.508;2022-08-19T02:27:19;36.20;;;20.45;;
49029;SDS011;43337;52.070;4.508;2022-08-19T02:29:48;35.38;;;19.98;;
49029;SDS011;43337;52.070;4.508;2022-08-19T02:32:15;40.00;;;21.90;;
49029;SDS011;43337;52.070;4.508;2022-08-19T02:34:41;42.78;;;22.90;;
49029;SDS011;43337;52.070;4.508;2022-08-19T02:37:07;41.70;;;24.08;;
49029;SDS011;43337;52.070;4.508;2022-08-19T02:39:52;45.95;;;23.58;;
49029;SDS011;43337;52.070;4.508;2022-08-19T02:42:18;43.47;;;23.63;;
49029;SDS011;43337;52.070;4.508;2022-08-19T02:44:43;42.50;;;22.85;;
49029;SDS011;43337;52.070;4.508;2022-08-19T02:47:09;36.85;;;19.60;;
49029;SDS011;43337;52.070;4.508;2022-08-19T02:49:35;39.17;;;21.45;;
49029;SDS011;43337;52.070;4.508;2022-08-19T02:52:01;38.47;;;23.27;;
49029;SDS011;43337;52.070;4.508;2022-08-19T02:54:26;38.95;;;20.92;;
49029;SDS011;43337;52.070;4.508;2022-08-19T02:56:52;43.70;;;21.02;;
49029;SDS011;43337;52.070;4.508;2022-08-19T02:59:18;40.03;;;21.83;;
49029;SDS011;43337;52.070;4.508;2022-08-19T03:01:43;42.03;;;20.67;;
49029;SDS011;43337;52.070;4.508;2022-08-19T03:04:12;30.73;;;18.00;;
49029;SDS011;43337;52.070;4.508;2022-08-19T03:06:41;36.78;;;20.92;;
49029;SDS011;43337;52.070;4.508;2022-08-19T03:09:08;36.35;;;19.95;;
49029;SDS011;43337;52.070;4.508;2022-08-19T03:11:34;43.92;;;22.98;;
49029;SDS011;43337;52.070;4.508;2022-08-19T03:14:00;38.15;;;19.77;;
49029;SDS011;43337;52.070;4.508;2022-08-19T03:16:28;37.45;;;21.13;;
49029;SDS011;43337;52.070;4.508;2022-08-19T03:18:55;43.28;;;22.60;;
49029;SDS011;43337;52.070;4.508;2022-08-19T03:21:25;45.33;;;22.45;;
49029;SDS011;43337;52.070;4.508;2022-08-19T03:23:55;43.15;;;22.25;;
49029;SDS011;43337;52.070;4.508;2022-08-19T03:28:51;43.05;;;22.02;;
49029;SDS011;43337;52.070;4.508;2022-08-19T03:31:20;45.40;;;23.67;;
49029;SDS011;43337;52.070;4.508;2022-08-19T03:33:47;44.83;;;23.10;;
49029;SDS011;43337;52.070;4.508;2022-08-19T03:36:19;46.95;;;24.80;;
49029;SDS011;43337;52.070;4.508;2022-08-19T03:38:48;44.63;;;22.67;;
49029;SDS011;43337;52.070;4.508;2022-08-19T03:41:17;46.40;;;23.33;;
49029;SDS011;43337;52.070;4.508;2022-08-19T03:43:44;48.03;;;23.40;;
49029;SDS011;43337;52.070;4.508;2022-08-19T03:46:16;49.45;;;24.73;;
49029;SDS011;43337;52.070;4.508;2022-08-19T03:48:45;49.22;;;23.92;;
49029;SDS011;43337;52.070;4.508;2022-08-19T03:51:19;51.25;;;24.30;;
49029;SDS011;43337;52.070;4.508;2022-08-19T03:53:50;47.13;;;22.95;;
49029;SDS011;43337;52.070;4.508;2022-08-19T03:56:17;50.63;;;25.77;;
49029;SDS011;43337;52.070;4.508;2022-08-19T03:58:42;48.67;;;24.33;;
49029;SDS011;43337;52.070;4.508;2022-08-19T04:01:13;45.90;;;23.63;;
49029;SDS011;43337;52.070;4.508;2022-08-19T04:06:12;50.47;;;24.17;;
49029;SDS011;43337;52.070;4.508;2022-08-19T04:08:39;53.08;;;25.20;;
49029;SDS011;43337;52.070;4.508;2022-08-19T04:11:09;55.97;;;25.75;;
49029;SDS011;43337;52.070;4.508;2022-08-19T04:13:37;52.28;;;25.23;;
49029;SDS011;43337;52.070;4.508;2022-08-19T04:16:03;51.53;;;25.13;;
49029;SDS011;43337;52.070;4.508;2022-08-19T04:18:30;58.42;;;28.20;;
49029;SDS011;43337;52.070;4.508;2022-08-19T04:20:56;54.08;;;26.40;;
49029;SDS011;43337;52.070;4.508;2022-08-19T04:23:22;58.33;;;28.85;;
49029;SDS011;43337;52.070;4.508;2022-08-19T04:25:47;63.90;;;28.25;;
49029;SDS011;43337;52.070;4.508;2022-08-19T04:28:13;64.63;;;31.58;;
49029;SDS011;43337;52.070;4.508;2022-08-19T04:30:42;72.55;;;32.72;;
49029;SDS011;43337;52.070;4.508;2022-08-19T04:33:13;71.78;;;32.28;;
49029;SDS011;43337;52.070;4.508;2022-08-19T04:35:40;63.33;;;30.92;;
49029;SDS011;43337;52.070;4.508;2022-08-19T04:38:08;71.15;;;30.63;;
49029;SDS011;43337;52.070;4.508;2022-08-19T04:40:39;71.93;;;32.47;;
49029;SDS011;43337;52.070;4.508;2022-08-19T04:43:24;61.38;;;28.83;;
49029;SDS011;43337;52.070;4.508;2022-08-19T04:45:49;74.30;;;32.30;;
49029;SDS011;43337;52.070;4.508;2022-08-19T04:48:16;72.35;;;33.28;;
49029;SDS011;43337;52.070;4.508;2022-08-19T04:50:51;65.18;;;30.17;;
49029;SDS011;43337;52.070;4.508;2022-08-19T04:53:27;75.15;;;32.13;;
49029;SDS011;43337;52.070;4.508;2022-08-19T04:55:55;78.32;;;30.52;;
49029;SDS011;43337;52.070;4.508;2022-08-19T04:58:22;71.85;;;30.63;;
49029;SDS011;43337;52.070;4.508;2022-08-19T05:00:49;77.38;;;32.20;;
49029;SDS011;43337;52.070;4.508;2022-08-19T05:03:15;76.32;;;30.48;;
49029;SDS011;43337;52.070;4.508;2022-08-19T05:05:42;74.70;;;32.08;;
49029;SDS011;43337;52.070;4.508;2022-08-19T05:08:08;75.60;;;29.70;;
49029;SDS011;43337;52.070;4.508;2022-08-19T05:10:35;73.82;;;30.10;;
49029;SDS011;43337;52.070;4.508;2022-08-19T05:13:02;71.70;;;29.20;;
49029;SDS011;43337;52.070;4.508;2022-08-19T05:15:28;72.68;;;30.35;;
49029;SDS011;43337;52.070;4.508;2022-08-19T05:17:54;75.53;;;30.80;;
49029;SDS011;43337;52.070;4.508;2022-08-19T05:20:38;68.87;;;30.03;;
49029;SDS011;43337;52.070;4.508;2022-08-19T05:23:22;66.30;;;28.10;;
49029;SDS011;43337;52.070;4.508;2022-08-19T05:25:47;71.15;;;29.13;;
49029;SDS011;43337;52.070;4.508;2022-08-19T05:28:13;66.10;;;28.67;;
49029;SDS011;43337;52.070;4.508;2022-08-19T05:30:38;68.78;;;27.50;;
49029;SDS011;43337;52.070;4.508;2022-08-19T05:33:05;65.28;;;27.80;;
49029;SDS011;43337;52.070;4.508;2022-08-19T05:35:31;66.90;;;27.45;;
49029;SDS011;43337;52.070;4.508;2022-08-19T05:37:56;62.58;;;28.00;;
49029;SDS011;43337;52.070;4.508;2022-08-19T05:40:22;66.82;;;28.80;;
49029;SDS011;43337;52.070;4.508;2022-08-19T05:42:47;69.22;;;27.42;;
49029;SDS011;43337;52.070;4.508;2022-08-19T05:45:14;70.20;;;27.85;;
49029;SDS011;43337;52.070;4.508;2022-08-19T05:47:39;73.25;;;28.52;;
49029;SDS011;43337;52.070;4.508;2022-08-19T05:50:05;67.78;;;28.38;;
49029;SDS011;43337;52.070;4.508;2022-08-19T05:52:31;63.22;;;27.25;;
49029;SDS011;43337;52.070;4.508;2022-08-19T05:54:56;65.88;;;27.92;;
49029;SDS011;43337;52.070;4.508;2022-08-19T05:57:22;65.43;;;27.90;;
49029;SDS011;43337;52.070;4.508;2022-08-19T05:59:48;68.38;;;26.52;;
49029;SDS011;43337;52.070;4.508;2022-08-19T06:02:16;56.70;;;25.88;;
49029;SDS011;43337;52.070;4.508;2022-08-19T06:04:41;63.03;;;25.90;;
49029;SDS011;43337;52.070;4.508;2022-08-19T06:07:10;63.85;;;26.63;;
49029;SDS011;43337;52.070;4.508;2022-08-19T06:09:35;56.63;;;24.30;;
49029;SDS011;43337;52.070;4.508;2022-08-19T06:12:02;61.45;;;24.83;;
49029;SDS011;43337;52.070;4.508;2022-08-19T06:14:30;62.20;;;27.45;;
49029;SDS011;43337;52.070;4.508;2022-08-19T06:16:57;56.28;;;24.65;;
49029;SDS011;43337;52.070;4.508;2022-08-19T06:19:27;53.33;;;24.00;;
49029;SDS011;43337;52.070;4.508;2022-08-19T06:21:55;54.83;;;25.48;;
49029;SDS011;43337;52.070;4.508;2022-08-19T06:24:22;56.67;;;26.25;;
49029;SDS011;43337;52.070;4.508;2022-08-19T06:26:49;57.17;;;25.25;;
49029;SDS011;43337;52.070;4.508;2022-08-19T06:29:18;49.28;;;23.88;;
49029;SDS011;43337;52.070;4.508;2022-08-19T06:31:46;54.30;;;25.98;;
49029;SDS011;43337;52.070;4.508;2022-08-19T06:34:14;52.47;;;25.90;;
49029;SDS011;43337;52.070;4.508;2022-08-19T06:36:41;55.65;;;26.60;;
49029;SDS011;43337;52.070;4.508;2022-08-19T06:39:16;47.35;;;23.23;;
49029;SDS011;43337;52.070;4.508;2022-08-19T06:41:45;50.33;;;23.90;;
49029;SDS011;43337;52.070;4.508;2022-08-19T06:44:13;47.75;;;23.15;;
49029;SDS011;43337;52.070;4.508;2022-08-19T06:46:39;46.08;;;24.02;;
49029;SDS011;43337;52.070;4.508;2022-08-19T06:49:05;50.40;;;23.65;;
49029;SDS011;43337;52.070;4.508;2022-08-19T06:51:36;47.05;;;24.08;;
49029;SDS011;43337;52.070;4.508;2022-08-19T06:54:02;50.10;;;23.35;;
49029;SDS011;43337;52.070;4.508;2022-08-19T06:56:28;45.05;;;22.98;;
49029;SDS011;43337;52.070;4.508;2022-08-19T06:59:04;47.75;;;23.38;;
49029;SDS011;43337;52.070;4.508;2022-08-19T07:01:36;42.88;;;23.33;;
49029;SDS011;43337;52.070;4.508;2022-08-19T07:04:04;42.22;;;21.88;;
49029;SDS011;43337;52.070;4.508;2022-08-19T07:06:30;36.28;;;21.48;;
49029;SDS011;43337;52.070;4.508;2022-08-19T07:08:56;38.10;;;21.15;;
49029;SDS011;43337;52.070;4.508;2022-08-19T07:11:23;43.80;;;22.05;;
49029;SDS011;43337;52.070;4.508;2022-08-19T07:13:48;34.33;;;20.05;;
49029;SDS011;43337;52.070;4.508;2022-08-19T07:16:15;40.67;;;18.67;;
49029;SDS011;43337;52.070;4.508;2022-08-19T07:18:44;39.85;;;20.10;;
49029;SDS011;43337;52.070;4.508;2022-08-19T07:21:16;36.83;;;19.65;;
49029;SDS011;43337;52.070;4.508;2022-08-19T07:23:45;41.58;;;20.13;;
49029;SDS011;43337;52.070;4.508;2022-08-19T07:28:39;35.20;;;18.77;;
49029;SDS011;43337;52.070;4.508;2022-08-19T07:31:07;37.65;;;17.58;;
49029;SDS011;43337;52.070;4.508;2022-08-19T07:33:33;36.00;;;19.25;;
49029;SDS011;43337;52.070;4.508;2022-08-19T07:36:01;38.85;;;19.17;;
49029;SDS011;43337;52.070;4.508;2022-08-19T07:38:26;34.33;;;17.70;;
49029;SDS011;43337;52.070;4.508;2022-08-19T07:40:51;34.40;;;17.80;;
49029;SDS011;43337;52.070;4.508;2022-08-19T07:43:17;34.28;;;17.52;;
49029;SDS011;43337;52.070;4.508;2022-08-19T07:45:49;34.67;;;18.33;;
49029;SDS011;43337;52.070;4.508;2022-08-19T07:48:15;34.22;;;16.95;;
49029;SDS011;43337;52.070;4.508;2022-08-19T07:50:41;34.95;;;18.05;;
49029;SDS011;43337;52.070;4.508;2022-08-19T07:53:06;35.65;;;20.27;;
49029;SDS011;43337;52.070;4.508;2022-08-19T07:55:32;30.50;;;18.35;;
49029;SDS011;43337;52.070;4.508;2022-08-19T07:57:59;30.02;;;16.90;;
49029;SDS011;43337;52.070;4.508;2022-08-19T08:00:24;32.20;;;17.35;;
49029;SDS011;43337;52.070;4.508;2022-08-19T08:02:51;33.58;;;18.15;;
49029;SDS011;43337;52.070;4.508;2022-08-19T08:05:18;32.05;;;16.95;;
49029;SDS011;43337;52.070;4.508;2022-08-19T08:08:02;40.80;;;22.65;;
49029;SDS011;43337;52.070;4.508;2022-08-19T08:10:46;36.25;;;18.48;;
49029;SDS011;43337;52.070;4.508;2022-08-19T08:13:11;33.80;;;18.52;;
49029;SDS011;43337;52.070;4.508;2022-08-19T08:15:37;34.45;;;18.20;;
49029;SDS011;43337;52.070;4.508;2022-08-19T08:18:03;44.15;;;17.58;;
49029;SDS011;43337;52.070;4.508;2022-08-19T08:20:29;31.33;;;16.25;;
49029;SDS011;43337;52.070;4.508;2022-08-19T08:22:55;36.75;;;19.33;;
49029;SDS011;43337;52.070;4.508;2022-08-19T08:25:38;35.40;;;23.27;;
49029;SDS011;43337;52.070;4.508;2022-08-19T08:28:04;33.60;;;18.23;;
49029;SDS011;43337;52.070;4.508;2022-08-19T08:30:30;30.77;;;15.80;;
49029;SDS011;43337;52.070;4.508;2022-08-19T08:32:58;36.70;;;16.45;;
49029;SDS011;43337;52.070;4.508;2022-08-19T08:35:24;31.27;;;19.65;;
49029;SDS011;43337;52.070;4.508;2022-08-19T08:37:50;32.67;;;17.70;;
49029;SDS011;43337;52.070;4.508;2022-08-19T08:40:18;29.75;;;14.63;;
49029;SDS011;43337;52.070;4.508;2022-08-19T08:43:37;26.88;;;13.30;;
49029;SDS011;43337;52.070;4.508;2022-08-19T08:46:09;23.10;;;11.88;;
49029;SDS011;43337;52.070;4.508;2022-08-19T08:48:52;27.60;;;12.77;;
49029;SDS011;43337;52.070;4.508;2022-08-19T08:51:32;20.42;;;11.45;;
49029;SDS011;43337;52.070;4.508;2022-08-19T08:54:10;15.70;;;9.77;;
49029;SDS011;43337;52.070;4.508;2022-08-19T08:56:38;22.52;;;10.15;;
49029;SDS011;43337;52.070;4.508;2022-08-19T08:59:07;18.67;;;11.00;;
49029;SDS011;43337;52.070;4.508;2022-08-19T09:01:42;21.38;;;11.95;;
49029;SDS011;43337;52.070;4.508;2022-08-19T09:04:07;21.17;;;10.60;;
49029;SDS011;43337;52.070;4.508;2022-08-19T09:09:24;12.65;;;6.88;;
49029;SDS011;43337;52.070;4.508;2022-08-19T09:14:45;14.02;;;6.45;;
49029;SDS011;43337;52.070;4.508;2022-08-19T09:17:13;9.60;;;5.68;;
49029;SDS011;43337;52.070;4.508;2022-08-19T09:19:52;12.85;;;6.97;;
49029;SDS011;43337;52.070;4.508;2022-08-19T09:22:43;11.05;;;6.18;;
49029;SDS011;43337;52.070;4.508;2022-08-19T09:25:10;13.68;;;6.47;;
49029;SDS011;43337;52.070;4.508;2022-08-19T09:27:38;13.40;;;6.20;;
49029;SDS011;43337;52.070;4.508;2022-08-19T09:30:05;18.65;;;5.47;;
49029;SDS011;43337;52.070;4.508;2022-08-19T09:32:32;14.48;;;4.97;;
49029;SDS011;43337;52.070;4.508;2022-08-19T09:34:58;10.77;;;4.78;;
49029;SDS011;43337;52.070;4.508;2022-08-19T09:37:25;9.70;;;4.70;;
49029;SDS011;43337;52.070;4.508;2022-08-19T09:39:51;15.10;;;5.85;;
49029;SDS011;43337;52.070;4.508;2022-08-19T09:42:17;11.30;;;5.22;;
49029;SDS011;43337;52.070;4.508;2022-08-19T09:44:43;12.27;;;4.30;;
49029;SDS011;43337;52.070;4.508;2022-08-19T09:47:10;10.18;;;4.45;;
49029;SDS011;43337;52.070;4.508;2022-08-19T09:49:37;10.43;;;4.70;;
49029;SDS011;43337;52.070;4.508;2022-08-19T09:52:04;11.93;;;4.15;;
49029;SDS011;43337;52.070;4.508;2022-08-19T09:54:31;12.25;;;4.93;;
49029;SDS011;43337;52.070;4.508;2022-08-19T09:56:58;9.23;;;4.00;;
49029;SDS011;43337;52.070;4.508;2022-08-19T09:59:27;10.60;;;4.63;;
49029;SDS011;43337;52.070;4.508;2022-08-19T10:01:53;10.65;;;4.35;;
49029;SDS011;43337;52.070;4.508;2022-08-19T10:04:19;8.82;;;4.28;;
49029;SDS011;43337;52.070;4.508;2022-08-19T10:06:46;14.18;;;4.60;;
49029;SDS011;43337;52.070;4.508;2022-08-19T10:09:13;12.70;;;4.88;;
49029;SDS011;43337;52.070;4.508;2022-08-19T10:11:40;9.25;;;4.72;;
49029;SDS011;43337;52.070;4.508;2022-08-19T10:14:07;13.10;;;6.43;;
49029;SDS011;43337;52.070;4.508;2022-08-19T10:16:33;7.85;;;4.35;;
49029;SDS011;43337;52.070;4.508;2022-08-19T10:19:01;9.38;;;4.68;;
49029;SDS011;43337;52.070;4.508;2022-08-19T10:21:28;7.40;;;3.85;;
49029;SDS011;43337;52.070;4.508;2022-08-19T10:23:57;6.72;;;3.65;;
49029;SDS011;43337;52.070;4.508;2022-08-19T10:26:28;8.10;;;3.58;;
49029;SDS011;43337;52.070;4.508;2022-08-19T10:28:56;6.60;;;3.20;;
49029;SDS011;43337;52.070;4.508;2022-08-19T10:31:32;10.63;;;4.15;;
49029;SDS011;43337;52.070;4.508;2022-08-19T10:33:59;9.30;;;4.97;;
49029;SDS011;43337;52.070;4.508;2022-08-19T10:36:26;10.57;;;4.95;;
49029;SDS011;43337;52.070;4.508;2022-08-19T10:38:54;9.15;;;4.28;;
49029;SDS011;43337;52.070;4.508;2022-08-19T10:41:24;7.05;;;3.95;;
49029;SDS011;43337;52.070;4.508;2022-08-19T10:43:54;9.75;;;3.83;;
49029;SDS011;43337;52.070;4.508;2022-08-19T10:46:22;6.18;;;3.25;;
49029;SDS011;43337;52.070;4.508;2022-08-19T10:48:49;8.63;;;4.00;;
49029;SDS011;43337;52.070;4.508;2022-08-19T10:51:15;7.32;;;3.15;;
49029;SDS011;43337;52.070;4.508;2022-08-19T10:54:00;5.28;;;4.00;;
49029;SDS011;43337;52.070;4.508;2022-08-19T10:56:26;6.35;;;3.50;;
49029;SDS011;43337;52.070;4.508;2022-08-19T10:59:12;8.00;;;3.40;;
49029;SDS011;43337;52.070;4.508;2022-08-19T11:01:38;12.73;;;5.85;;
49029;SDS011;43337;52.070;4.508;2022-08-19T11:04:05;5.15;;;1.95;;
49029;SDS011;43337;52.070;4.508;2022-08-19T11:06:34;5.03;;;2.13;;
49029;SDS011;43337;52.070;4.508;2022-08-19T11:09:01;6.03;;;2.50;;
49029;SDS011;43337;52.070;4.508;2022-08-19T11:11:28;6.20;;;2.50;;
49029;SDS011;43337;52.070;4.508;2022-08-19T11:13:53;4.93;;;2.30;;
49029;SDS011;43337;52.070;4.508;2022-08-19T11:16:20;5.78;;;1.85;;
49029;SDS011;43337;52.070;4.508;2022-08-19T11:18:52;4.82;;;1.85;;
49029;SDS011;43337;52.070;4.508;2022-08-19T11:23:46;5.88;;;2.03;;
49029;SDS011;43337;52.070;4.508;2022-08-19T11:26:13;3.58;;;1.73;;
49029;SDS011;43337;52.070;4.508;2022-08-19T11:28:39;6.85;;;1.98;;
49029;SDS011;43337;52.070;4.508;2022-08-19T11:31:11;6.25;;;1.92;;
49029;SDS011;43337;52.070;4.508;2022-08-19T11:33:37;4.45;;;2.05;;
49029;SDS011;43337;52.070;4.508;2022-08-19T11:36:03;3.90;;;1.77;;
49029;SDS011;43337;52.070;4.508;2022-08-19T11:38:29;4.78;;;1.73;;
49029;SDS011;43337;52.070;4.508;2022-08-19T11:40:59;5.32;;;1.50;;
49029;SDS011;43337;52.070;4.508;2022-08-19T11:43:27;6.97;;;1.83;;
49029;SDS011;43337;52.070;4.508;2022-08-19T11:45:53;8.70;;;1.80;;
49029;SDS011;43337;52.070;4.508;2022-08-19T11:48:20;5.03;;;1.63;;
49029;SDS011;43337;52.070;4.508;2022-08-19T11:50:47;4.70;;;1.63;;
49029;SDS011;43337;52.070;4.508;2022-08-19T11:53:13;4.68;;;1.75;;
49029;SDS011;43337;52.070;4.508;2022-08-19T11:55:38;6.40;;;2.33;;
49029;SDS011;43337;52.070;4.508;2022-08-19T11:58:05;5.10;;;1.73;;
49029;SDS011;43337;52.070;4.508;2022-08-19T12:00:31;5.55;;;1.88;;
49029;SDS011;43337;52.070;4.508;2022-08-19T12:03:00;7.57;;;4.57;;
49029;SDS011;43337;52.070;4.508;2022-08-19T12:05:25;8.50;;;2.10;;
49029;SDS011;43337;52.070;4.508;2022-08-19T12:07:51;5.45;;;1.95;;
49029;SDS011;43337;52.070;4.508;2022-08-19T12:10:16;4.82;;;1.92;;
49029;SDS011;43337;52.070;4.508;2022-08-19T12:12:42;4.35;;;1.90;;
49029;SDS011;43337;52.070;4.508;2022-08-19T12:15:09;7.55;;;2.20;;
49029;SDS011;43337;52.070;4.508;2022-08-19T12:17:36;4.03;;;1.77;;
49029;SDS011;43337;52.070;4.508;2022-08-19T12:20:02;5.70;;;2.10;;
49029;SDS011;43337;52.070;4.508;2022-08-19T12:22:29;4.90;;;1.90;;
49029;SDS011;43337;52.070;4.508;2022-08-19T12:24:55;4.82;;;2.60;;
49029;SDS011;43337;52.070;4.508;2022-08-19T12:27:20;5.80;;;2.25;;
49029;SDS011;43337;52.070;4.508;2022-08-19T12:29:46;4.18;;;1.85;;
49029;SDS011;43337;52.070;4.508;2022-08-19T12:32:11;7.60;;;3.78;;
49029;SDS011;43337;52.070;4.508;2022-08-19T12:34:37;5.05;;;2.83;;
49029;SDS011;43337;52.070;4.508;2022-08-19T12:37:04;8.63;;;4.85;;
49029;SDS011;43337;52.070;4.508;2022-08-19T12:39:40;6.22;;;2.70;;
49029;SDS011;43337;52.070;4.508;2022-08-19T12:42:08;4.10;;;1.90;;
49029;SDS011;43337;52.070;4.508;2022-08-19T12:44:34;5.43;;;1.70;;
49029;SDS011;43337;52.070;4.508;2022-08-19T12:47:01;5.50;;;2.40;;
49029;SDS011;43337;52.070;4.508;2022-08-19T12:49:28;8.27;;;3.17;;
49029;SDS011;43337;52.070;4.508;2022-08-19T12:51:54;5.18;;;1.92;;
49029;SDS011;43337;52.070;4.508;2022-08-19T12:54:19;10.85;;;2.35;;
49029;SDS011;43337;52.070;4.508;2022-08-19T12:56:45;4.95;;;1.85;;
49029;SDS011;43337;52.070;4.508;2022-08-19T12:59:10;4.75;;;2.13;;
49029;SDS011;43337;52.070;4.508;2022-08-19T13:01:36;4.47;;;1.88;;
49029;SDS011;43337;52.070;4.508;2022-08-19T13:04:01;5.82;;;1.90;;
49029;SDS011;43337;52.070;4.508;2022-08-19T13:06:27;13.35;;;7.78;;
49029;SDS011;43337;52.070;4.508;2022-08-19T13:08:53;6.20;;;2.40;;
49029;SDS011;43337;52.070;4.508;2022-08-19T13:11:20;5.32;;;2.53;;
49029;SDS011;43337;52.070;4.508;2022-08-19T13:13:49;5.45;;;2.10;;
49029;SDS011;43337;52.070;4.508;2022-08-19T13:16:15;3.85;;;1.85;;
49029;SDS011;43337;52.070;4.508;2022-08-19T13:18:41;5.93;;;1.90;;
49029;SDS011;43337;52.070;4.508;2022-08-19T13:21:09;4.53;;;1.90;;
49029;SDS011;43337;52.070;4.508;2022-08-19T13:23:37;8.95;;;2.70;;
49029;SDS011;43337;52.070;4.508;2022-08-19T13:26:04;4.90;;;2.00;;
49029;SDS011;43337;52.070;4.508;2022-08-19T13:28:32;3.80;;;1.95;;
49029;SDS011;43337;52.070;4.508;2022-08-19T13:31:17;6.45;;;1.77;;
49029;SDS011;43337;52.070;4.508;2022-08-19T13:34:03;4.40;;;1.70;;
49029;SDS011;43337;52.070;4.508;2022-08-19T13:36:29;5.18;;;2.25;;
49029;SDS011;43337;52.070;4.508;2022-08-19T13:38:54;3.83;;;2.15;;
49029;SDS011;43337;52.070;4.508;2022-08-19T13:41:21;3.60;;;1.95;;
49029;SDS011;43337;52.070;4.508;2022-08-19T13:43:47;6.10;;;2.10;;
49029;SDS011;43337;52.070;4.508;2022-08-19T13:46:13;4.95;;;2.00;;
49029;SDS011;43337;52.070;4.508;2022-08-19T13:48:39;3.85;;;2.03;;
49029;SDS011;43337;52.070;4.508;2022-08-19T13:51:05;5.38;;;1.95;;
49029;SDS011;43337;52.070;4.508;2022-08-19T13:53:34;4.43;;;1.55;;
49029;SDS011;43337;52.070;4.508;2022-08-19T13:56:04;4.90;;;2.10;;
49029;SDS011;43337;52.070;4.508;2022-08-19T13:58:30;3.45;;;1.65;;
49029;SDS011;43337;52.070;4.508;2022-08-19T14:00:56;4.78;;;1.90;;
49029;SDS011;43337;52.070;4.508;2022-08-19T14:03:22;4.93;;;1.73;;
49029;SDS011;43337;52.070;4.508;2022-08-19T14:05:48;3.88;;;2.08;;
49029;SDS011;43337;52.070;4.508;2022-08-19T14:08:14;3.63;;;1.88;;
49029;SDS011;43337;52.070;4.508;2022-08-19T14:10:39;3.47;;;2.17;;
49029;SDS011;43337;52.070;4.508;2022-08-19T14:13:07;3.85;;;1.60;;
49029;SDS011;43337;52.070;4.508;2022-08-19T14:15:33;3.40;;;1.80;;
49029;SDS011;43337;52.070;4.508;2022-08-19T14:17:59;4.03;;;1.60;;
49029;SDS011;43337;52.070;4.508;2022-08-19T14:20:24;2.97;;;1.55;;
49029;SDS011;43337;52.070;4.508;2022-08-19T14:22:50;3.25;;;1.55;;
49029;SDS011;43337;52.070;4.508;2022-08-19T14:25:17;4.18;;;1.95;;
49029;SDS011;43337;52.070;4.508;2022-08-19T14:27:45;4.85;;;2.08;;
49029;SDS011;43337;52.070;4.508;2022-08-19T14:30:12;3.67;;;1.60;;
49029;SDS011;43337;52.070;4.508;2022-08-19T14:32:40;4.80;;;2.30;;
49029;SDS011;43337;52.070;4.508;2022-08-19T14:35:05;5.90;;;2.75;;
49029;SDS011;43337;52.070;4.508;2022-08-19T14:37:32;5.22;;;2.25;;
49029;SDS011;43337;52.070;4.508;2022-08-19T14:39:58;3.42;;;1.90;;
49029;SDS011;43337;52.070;4.508;2022-08-19T14:42:24;5.07;;;2.00;;
49029;SDS011;43337;52.070;4.508;2022-08-19T14:44:49;3.53;;;1.83;;
49029;SDS011;43337;52.070;4.508;2022-08-19T14:47:15;3.25;;;2.00;;
49029;SDS011;43337;52.070;4.508;2022-08-19T14:49:40;3.65;;;1.75;;
49029;SDS011;43337;52.070;4.508;2022-08-19T14:52:06;4.18;;;2.10;;
49029;SDS011;43337;52.070;4.508;2022-08-19T14:54:31;5.80;;;2.15;;
49029;SDS011;43337;52.070;4.508;2022-08-19T14:56:57;6.18;;;2.42;;